הכול
San Ysidro Ranch Airport (Catarina, TX) TS40 מזג אוויר
There is no TAF data available at TS40 or any nearby airports.
There is no METAR data available at TS40. Showing METAR data for KCZT (16 mi צפ'-מע').
Recent CZT METAR history (no data for TS40)
| Date | Time (CDT) | Flight Rules | Wind Dir. | Speed | Type | Height AGL (ft) | Visibility | Temp (°C) | Temp (°F) | Dew Point (°C) | Dew Point (°F) | Rel. Humid. | Pressure | Density Altitude | Remarks |
|---|---|---|---|---|---|---|---|---|---|---|---|---|---|---|---|
| 04-ספט | 20:55 | VFR | 130° | 14 kt | 10 miles | 33° | 91° | 20° | 68° | 46% | 29.85 in Hg | 2,828 ft | Wind gusting to 21 KT | ||
| 04-ספט | 20:35 | VFR | 110° | 5 kt | 10 miles | 33° | 91° | 18° | 64° | 41% | 29.83 in Hg | 2,848 ft | |||
| 04-ספט | 20:15 | VFR | 110° | 4 kt | 10 miles | 34° | 93° | 19° | 66° | 41% | 29.82 in Hg | 2,978 ft | |||
| 04-ספט | 19:55 | VFR | 110° | 5 kt | 10 miles | 35° | 95° | 19° | 66° | 39% | 29.82 in Hg | 3,098 ft | |||
| 04-ספט | 19:15 | VFR | 110° | 9 kt | 10 miles | 36° | 96° | 18° | 64° | 35% | 29.82 in Hg | 3,218 ft | |||
| 04-ספט | 18:55 | VFR | 90° | 7 kt | 10 miles | 37° | 98° | 18° | 64° | 33% | 29.82 in Hg | 3,338 ft | |||
| 04-ספט | 18:35 | VFR | 90° | 9 kt | 10 miles | 38° | 100° | 19° | 66° | 33% | 29.82 in Hg | 3,458 ft | Wind gusting to 14 KT | ||
| 04-ספט | 18:15 | VFR | 110° | 12 kt | 10 miles | 38° | 100° | 18° | 64° | 31% | 29.80 in Hg | 3,478 ft | |||
| 04-ספט | 17:55 | VFR | 100° | 9 kt | 10 miles | 40° | 104° | 19° | 66° | 30% | 29.80 in Hg | 3,718 ft | Wind gusting to 16 KT | ||
| 04-ספט | 17:15 | VFR | 110° | 8 kt | 10 miles | 40° | 104° | 19° | 66° | 30% | 29.81 in Hg | 3,708 ft | |||
| 04-ספט | 16:55 | VFR | 80° | 7 kt | 10 miles | 39° | 102° | 19° | 66° | 31% | 29.82 in Hg | 3,578 ft | |||
| 04-ספט | 16:15 | VFR | 160° | 5 kt | 10 miles | 38° | 100° | 21° | 69° | 38% | 29.83 in Hg | 3,448 ft | |||
| 04-ספט | 15:55 | VFR | 80° | 9 kt | 10 miles | 38° | 100° | 22° | 71° | 40% | 29.84 in Hg | 3,438 ft | |||
| 04-ספט | 15:15 | VFR | 100° | 5 kt | 10 miles | 37° | 98° | 23° | 73° | 45% | 29.86 in Hg | 3,298 ft | |||
| 04-ספט | 14:55 | VFR | 100° | 7 kt | 10 miles | 37° | 98° | 23° | 73° | 45% | 29.87 in Hg | 3,288 ft | |||
| 04-ספט | 14:15 | VFR | 90° | 7 kt | 10 miles | 36° | 96° | 23° | 73° | 47% | 29.89 in Hg | 3,148 ft | |||
| 04-ספט | 13:55 | VFR | 150° | 6 kt | 10 miles | 35° | 95° | 23° | 73° | 50% | 29.90 in Hg | 3,018 ft | |||
| 04-ספט | 13:35 | VFR | 70° | 7 kt | 10 miles | 34° | 93° | 23° | 73° | 53% | 29.91 in Hg | 2,888 ft | |||
| 04-ספט | 13:15 | VFR | 100° | 6 kt | 10 miles | 33° | 91° | 23° | 73° | 56% | 29.92 in Hg | 2,758 ft | |||
| 04-ספט | 12:55 | VFR | 100° | 4 kt | 10 miles | 32° | 89° | 23° | 73° | 59% | 29.93 in Hg | 2,628 ft | |||
| 04-ספט | 12:15 | VFR | 100° | 4 kt | 10 miles | 31° | 87° | 23° | 73° | 63% | 29.95 in Hg | 2,488 ft | |||
| 04-ספט | 11:55 | VFR | 90° | 5 kt | 10 miles | 30° | 86° | 24° | 75° | 70% | 29.95 in Hg | 2,368 ft | |||
| 04-ספט | 11:35 | VFR | 80° | 7 kt | 10 miles | 30° | 86° | 24° | 75° | 70% | 29.95 in Hg | 2,368 ft | |||
| 04-ספט | 11:15 | VFR | 90° | 7 kt | 10 miles | 30° | 86° | 25° | 77° | 75% | 29.95 in Hg | 2,368 ft |
כניסה לאתר
| אין תמיכה בדפדפן שלך. שדרג את הדפדפן שלך |
